createdAt,value
2019-05-13T00:01:34.743Z,5.03
2019-05-13T00:04:03.919Z,4.50
2019-05-13T00:06:34.348Z,4.33
2019-05-13T00:09:06.250Z,5.30
2019-05-13T00:11:35.836Z,5.47
2019-05-13T00:14:05.731Z,4.90
2019-05-13T00:16:35.277Z,5.30
2019-05-13T00:19:04.576Z,5.40
2019-05-13T00:21:34.172Z,5.07
2019-05-13T00:24:04.232Z,5.10
2019-05-13T00:26:34.046Z,5.27
2019-05-13T00:29:04.208Z,5.17
2019-05-13T00:31:33.645Z,5.57
2019-05-13T00:34:03.702Z,5.23
2019-05-13T00:36:33.692Z,5.73
2019-05-13T00:39:04.893Z,6.00
2019-05-13T00:41:34.057Z,5.33
2019-05-13T00:44:03.887Z,6.10
2019-05-13T00:46:34.025Z,6.40
2019-05-13T00:49:04.745Z,6.50
2019-05-13T00:51:34.108Z,6.67
2019-05-13T00:54:04.393Z,5.93
2019-05-13T00:56:34.534Z,6.30
2019-05-13T00:59:03.934Z,5.90
2019-05-13T01:01:33.588Z,7.00
2019-05-13T01:04:03.973Z,6.57
2019-05-13T01:06:34.112Z,6.73
2019-05-13T01:09:05.482Z,6.80
2019-05-13T01:11:34.739Z,7.10
2019-05-13T01:14:04.497Z,7.17
2019-05-13T01:16:34.158Z,6.67
2019-05-13T01:19:04.229Z,6.33
2019-05-13T01:21:34.485Z,6.83
2019-05-13T01:24:04.130Z,7.20
2019-05-13T01:26:33.872Z,7.03
2019-05-13T01:29:04.276Z,6.97
2019-05-13T01:31:34.364Z,7.30
2019-05-13T01:34:04.199Z,7.33
2019-05-13T01:36:34.173Z,7.90
2019-05-13T01:39:06.077Z,8.27
2019-05-13T01:41:35.358Z,8.13
2019-05-13T01:44:04.692Z,9.33
2019-05-13T01:46:34.777Z,8.80
2019-05-13T01:49:04.934Z,8.10
2019-05-13T01:51:34.492Z,8.60
2019-05-13T01:54:04.141Z,9.80
2019-05-13T01:56:34.106Z,9.03
2019-05-13T01:59:03.867Z,9.77
2019-05-13T02:01:33.893Z,9.90
2019-05-13T02:04:04.091Z,9.90
2019-05-13T02:06:33.852Z,9.27
2019-05-13T02:09:05.208Z,9.90
2019-05-13T02:11:34.850Z,10.87
2019-05-13T02:14:05.663Z,10.87
2019-05-13T02:16:35.360Z,9.87
2019-05-13T02:19:04.887Z,9.93
2019-05-13T02:21:34.105Z,10.80
2019-05-13T02:24:04.271Z,10.17
2019-05-13T02:26:34.530Z,11.27
2019-05-13T02:29:04.056Z,10.23
2019-05-13T02:31:46.165Z,10.33
2019-05-13T02:34:04.625Z,10.37
2019-05-13T02:36:33.898Z,10.87
2019-05-13T02:39:05.413Z,10.73
2019-05-13T02:41:35.038Z,10.30
2019-05-13T02:44:04.803Z,11.57
2019-05-13T02:46:34.420Z,9.60
2019-05-13T02:49:04.266Z,11.57
2019-05-13T02:51:33.526Z,10.77
2019-05-13T02:54:03.759Z,11.47
2019-05-13T02:56:33.335Z,10.93
2019-05-13T02:59:03.945Z,11.50
2019-05-13T03:01:33.554Z,11.10
2019-05-13T03:04:03.606Z,10.83
2019-05-13T03:06:33.369Z,11.40
2019-05-13T03:09:04.438Z,11.50
2019-05-13T03:11:33.963Z,11.03
2019-05-13T03:14:03.893Z,10.23
2019-05-13T03:16:58.387Z,10.80
2019-05-13T03:19:27.963Z,10.70
2019-05-13T03:21:57.244Z,10.87
2019-05-13T03:24:26.379Z,10.37
2019-05-13T03:26:55.578Z,10.80
2019-05-13T03:29:24.812Z,10.30
2019-05-13T03:31:55.726Z,11.30
2019-05-13T03:34:27.110Z,10.03
2019-05-13T03:36:57.842Z,11.03
2019-05-13T03:39:29.000Z,11.60
2019-05-13T03:42:02.944Z,10.13
2019-05-13T03:44:32.866Z,10.73
2019-05-13T03:47:04.075Z,11.17
2019-05-13T03:49:36.263Z,11.17
2019-05-13T03:52:05.491Z,10.67
2019-05-13T03:54:35.224Z,11.97
2019-05-13T03:57:05.408Z,11.03
2019-05-13T03:59:35.017Z,10.83
2019-05-13T04:02:04.338Z,11.20
2019-05-13T04:04:33.549Z,11.83
2019-05-13T04:07:03.246Z,11.20
2019-05-13T04:09:36.261Z,10.43
2019-05-13T04:12:04.340Z,11.43
2019-05-13T04:14:35.794Z,11.60
2019-05-13T04:17:05.436Z,11.07
2019-05-13T04:19:35.262Z,11.00
2019-05-13T04:22:04.515Z,11.53
2019-05-13T04:24:35.705Z,11.73
2019-05-13T04:27:05.292Z,10.97
2019-05-13T04:29:35.620Z,11.20
2019-05-13T04:32:05.017Z,12.03
2019-05-13T04:34:34.307Z,12.50
2019-05-13T04:37:03.681Z,12.60
2019-05-13T04:39:45.938Z,10.70
2019-05-13T04:42:04.530Z,11.53
2019-05-13T04:44:33.908Z,11.73
2019-05-13T04:47:04.244Z,11.27
2019-05-13T04:49:33.588Z,11.73
2019-05-13T04:52:03.691Z,10.90
2019-05-13T04:54:33.896Z,11.57
2019-05-13T04:57:03.579Z,10.97
2019-05-13T04:59:35.840Z,11.50
2019-05-13T05:02:41.969Z,10.90
2019-05-13T05:05:15.136Z,10.43
2019-05-13T05:08:15.849Z,11.17
2019-05-13T05:11:32.487Z,9.77
2019-05-13T05:14:34.049Z,9.97
2019-05-13T05:17:35.799Z,11.40
2019-05-13T05:20:17.716Z,10.90
2019-05-13T05:23:11.273Z,10.53
2019-05-13T05:26:01.230Z,9.77
2019-05-13T05:28:57.444Z,8.93
2019-05-13T05:31:47.180Z,8.87
2019-05-13T05:35:12.535Z,9.43
2019-05-13T05:38:12.141Z,8.80
2019-05-13T05:40:44.609Z,9.37
2019-05-13T05:43:14.660Z,9.27
2019-05-13T05:45:43.986Z,9.77
2019-05-13T05:48:16.992Z,9.10
2019-05-13T05:50:48.241Z,8.90
2019-05-13T05:53:21.845Z,8.40
2019-05-13T05:55:52.654Z,8.80
2019-05-13T05:58:23.427Z,8.33
2019-05-13T06:00:56.034Z,8.83
2019-05-13T06:03:27.922Z,8.93
2019-05-13T06:05:57.495Z,7.67
2019-05-13T06:08:26.891Z,8.37
2019-05-13T06:10:56.227Z,7.17
2019-05-13T06:13:25.386Z,7.40
2019-05-13T06:15:54.929Z,7.23
2019-05-13T06:18:24.091Z,6.43
2019-05-13T06:20:53.344Z,7.50
2019-05-13T06:23:22.648Z,6.60
2019-05-13T06:25:52.830Z,6.40
2019-05-13T06:28:22.545Z,6.70
2019-05-13T06:30:52.138Z,5.70
2019-05-13T06:33:21.499Z,5.73
2019-05-13T06:35:52.161Z,5.73
2019-05-13T06:38:22.476Z,5.10
2019-05-13T06:41:00.394Z,5.67
2019-05-13T06:43:22.950Z,4.87
2019-05-13T06:45:52.534Z,4.90
2019-05-13T06:48:23.147Z,4.90
2019-05-13T06:50:52.589Z,4.57
2019-05-13T06:53:22.172Z,4.77
2019-05-13T06:55:52.264Z,4.67
2019-05-13T06:58:22.430Z,4.10
2019-05-13T07:00:51.811Z,4.20
2019-05-13T07:03:21.965Z,3.77
2019-05-13T07:05:52.549Z,3.90
2019-05-13T07:08:22.309Z,4.27
2019-05-13T07:10:51.715Z,4.83
2019-05-13T07:13:21.827Z,4.50
2019-05-13T07:15:52.182Z,4.17
2019-05-13T07:18:21.960Z,4.27
2019-05-13T07:20:53.040Z,3.80
2019-05-13T07:23:22.593Z,3.53
2019-05-13T07:25:52.647Z,3.60
2019-05-13T07:28:22.100Z,3.50
2019-05-13T07:30:51.684Z,3.83
2019-05-13T07:33:21.492Z,2.83
2019-05-13T07:35:58.059Z,2.90
2019-05-13T07:38:23.795Z,3.10
2019-05-13T07:41:01.534Z,2.97
2019-05-13T07:43:32.172Z,4.00
2019-05-13T07:46:02.242Z,3.30
2019-05-13T07:48:32.099Z,3.13
2019-05-13T07:51:04.589Z,2.90
2019-05-13T07:53:33.024Z,3.20
2019-05-13T07:56:04.830Z,3.47
2019-05-13T07:58:37.617Z,3.57
2019-05-13T08:01:05.440Z,3.47
2019-05-13T08:03:34.624Z,3.60
2019-05-13T08:06:04.436Z,3.50
2019-05-13T08:08:33.667Z,3.50
2019-05-13T08:11:02.804Z,3.57
2019-05-13T08:13:32.326Z,3.70
2019-05-13T08:16:02.084Z,3.30
2019-05-13T08:18:32.126Z,11.40
2019-05-13T08:21:02.365Z,4.17
2019-05-13T08:23:32.542Z,4.20
2019-05-13T08:26:02.515Z,4.53
2019-05-13T08:28:32.503Z,4.20
2019-05-13T08:31:02.470Z,4.00
2019-05-13T08:33:32.325Z,2.83
2019-05-13T08:36:01.913Z,2.97
2019-05-13T08:38:32.124Z,3.13
2019-05-13T08:41:02.013Z,3.20
2019-05-13T08:43:31.812Z,2.77
2019-05-13T08:46:02.411Z,3.30
2019-05-13T08:48:32.398Z,4.37
2019-05-13T08:51:03.123Z,4.77
2019-05-13T08:53:33.079Z,4.60
2019-05-13T08:56:02.721Z,3.53
2019-05-13T08:58:32.255Z,8.80
2019-05-13T09:01:02.453Z,4.07
2019-05-13T09:03:32.916Z,4.67
2019-05-13T09:06:03.160Z,4.30
2019-05-13T09:08:33.057Z,5.63
2019-05-13T09:11:03.163Z,5.13
2019-05-13T09:13:33.153Z,7.67
2019-05-13T09:16:03.050Z,5.20
2019-05-13T09:18:32.552Z,4.97
2019-05-13T09:21:02.744Z,7.37
2019-05-13T09:23:32.050Z,9.67
2019-05-13T09:26:02.617Z,10.20
2019-05-13T09:28:32.582Z,8.53
2019-05-13T09:31:02.256Z,8.73
2019-05-13T09:33:32.804Z,8.10
2019-05-13T09:36:02.497Z,8.60
2019-05-13T09:38:32.701Z,8.03
2019-05-13T09:41:02.308Z,7.70
2019-05-13T09:43:32.283Z,7.53
2019-05-13T09:46:02.021Z,5.70
2019-05-13T09:48:32.079Z,6.70
2019-05-13T09:51:02.368Z,7.27
2019-05-13T09:53:32.849Z,8.17
2019-05-13T09:56:02.711Z,7.10
2019-05-13T09:58:33.089Z,7.43
2019-05-13T10:01:02.679Z,8.83
2019-05-13T10:03:33.240Z,8.40
2019-05-13T10:06:02.811Z,8.20
2019-05-13T10:08:32.885Z,8.03
2019-05-13T10:11:02.349Z,7.23
2019-05-13T10:13:31.786Z,8.07
2019-05-13T10:16:01.417Z,7.00
2019-05-13T10:18:32.577Z,6.40
2019-05-13T10:21:03.618Z,7.23
2019-05-13T10:23:33.516Z,8.00
2019-05-13T10:26:05.455Z,7.40
2019-05-13T10:28:35.599Z,7.53
2019-05-13T10:31:05.969Z,6.83
2019-05-13T10:33:35.485Z,7.33
2019-05-13T10:36:05.037Z,7.13
2019-05-13T10:38:34.634Z,6.33
2019-05-13T10:41:04.119Z,7.03
2019-05-13T10:43:39.038Z,6.60
2019-05-13T10:46:04.824Z,6.13
2019-05-13T10:48:34.080Z,6.20
2019-05-13T10:51:03.829Z,6.43
2019-05-13T10:53:33.163Z,7.07
2019-05-13T10:56:03.639Z,6.50
2019-05-13T10:58:33.390Z,5.90
2019-05-13T11:01:03.837Z,6.00
2019-05-13T11:03:33.505Z,6.20
2019-05-13T11:06:03.558Z,6.30
2019-05-13T11:08:33.350Z,6.50
2019-05-13T11:11:03.240Z,5.83
2019-05-13T11:13:50.415Z,5.40
2019-05-13T11:16:04.280Z,5.23
2019-05-13T11:18:33.922Z,6.10
2019-05-13T11:21:03.917Z,5.40
2019-05-13T11:23:33.196Z,4.53
2019-05-13T11:26:03.202Z,3.50
2019-05-13T11:28:33.318Z,4.63
2019-05-13T11:31:03.481Z,4.93
2019-05-13T11:33:32.986Z,5.17
2019-05-13T11:36:03.549Z,5.07
2019-05-13T11:38:33.091Z,5.73
2019-05-13T11:41:02.866Z,4.90
2019-05-13T11:43:33.229Z,5.83
2019-05-13T11:46:04.182Z,5.10
2019-05-13T11:48:33.554Z,6.97
2019-05-13T11:51:04.268Z,4.50
2019-05-13T11:53:37.455Z,4.97
2019-05-13T11:56:05.048Z,4.30
2019-05-13T11:58:34.770Z,4.57
2019-05-13T12:01:05.280Z,4.70
2019-05-13T12:03:36.148Z,4.97
2019-05-13T12:06:05.431Z,4.60
2019-05-13T12:08:34.806Z,4.43
2019-05-13T12:13:35.498Z,4.27
2019-05-13T12:16:04.844Z,4.47
2019-05-13T12:18:34.133Z,4.87
2019-05-13T12:21:04.327Z,5.10
2019-05-13T12:23:34.154Z,9.07
2019-05-13T12:26:04.697Z,3.73
2019-05-13T12:28:34.801Z,5.60
2019-05-13T12:31:04.132Z,4.97
2019-05-13T12:33:33.351Z,4.47
2019-05-13T12:36:03.021Z,4.40
2019-05-13T12:38:33.454Z,4.50
2019-05-13T12:41:05.372Z,7.53
2019-05-13T12:43:34.873Z,5.47
2019-05-13T12:46:04.861Z,4.03
2019-05-13T12:48:34.034Z,4.03
2019-05-13T12:51:03.423Z,3.97
2019-05-13T12:53:32.752Z,4.23
2019-05-13T12:56:03.355Z,4.77
2019-05-13T12:58:34.332Z,4.47
2019-05-13T13:01:04.441Z,4.90
2019-05-13T13:03:33.803Z,5.10
2019-05-13T13:06:25.134Z,4.77
2019-05-13T13:08:43.768Z,4.80
2019-05-13T13:11:05.687Z,4.40
2019-05-13T13:13:56.605Z,4.77
2019-05-13T13:16:06.694Z,4.57
2019-05-13T13:18:36.208Z,4.10
2019-05-13T13:21:07.881Z,4.57
2019-05-13T13:23:37.182Z,4.07
2019-05-13T13:26:15.429Z,4.40
2019-05-13T13:28:37.925Z,4.00
2019-05-13T13:31:07.486Z,3.67
2019-05-13T13:33:36.848Z,3.73
2019-05-13T13:36:06.253Z,3.73
2019-05-13T13:38:36.449Z,3.80
2019-05-13T13:41:05.760Z,3.70
2019-05-13T13:43:36.884Z,3.83
2019-05-13T13:46:16.463Z,3.67
2019-05-13T13:48:37.797Z,3.30
2019-05-13T13:51:07.458Z,3.07
2019-05-13T13:53:37.161Z,3.57
2019-05-13T13:56:06.509Z,3.40
2019-05-13T13:58:35.893Z,2.93
2019-05-13T14:01:12.510Z,2.90
2019-05-13T14:03:36.167Z,3.23
2019-05-13T14:06:06.482Z,3.67
2019-05-13T14:07:03.320Z,4.57
2019-05-13T14:08:35.939Z,3.27
2019-05-13T14:11:05.177Z,2.77
2019-05-13T14:13:34.551Z,3.17
2019-05-13T14:16:04.118Z,2.63
2019-05-13T14:18:33.368Z,3.67
2019-05-13T14:21:03.397Z,3.47
2019-05-13T14:23:33.242Z,3.53
2019-05-13T14:26:02.557Z,3.10
2019-05-13T14:28:32.696Z,3.30
2019-05-13T14:31:04.635Z,3.03
2019-05-13T14:33:35.597Z,3.00
2019-05-13T14:36:05.447Z,3.23
2019-05-13T14:38:34.996Z,4.67
2019-05-13T14:41:04.312Z,3.40
2019-05-13T14:43:33.650Z,4.50
2019-05-13T14:46:02.969Z,2.50
2019-05-13T14:48:33.031Z,3.23
2019-05-13T14:51:02.749Z,3.67
2019-05-13T14:53:32.537Z,3.60
2019-05-13T14:56:02.936Z,3.23
2019-05-13T14:58:33.138Z,2.90
2019-05-13T15:01:20.130Z,3.23
2019-05-13T15:03:34.392Z,3.33
2019-05-13T15:06:04.325Z,3.73
2019-05-13T15:08:34.715Z,3.60
2019-05-13T15:11:04.408Z,3.27
2019-05-13T15:13:33.746Z,3.47
2019-05-13T15:16:03.025Z,3.30
2019-05-13T15:18:32.887Z,3.73
2019-05-13T15:21:02.612Z,4.03
2019-05-13T15:23:32.019Z,3.90
2019-05-13T15:26:02.388Z,3.73
2019-05-13T15:28:32.044Z,3.90
2019-05-13T15:31:01.383Z,3.73
2019-05-13T15:33:32.816Z,3.97
2019-05-13T15:36:04.937Z,3.80
2019-05-13T15:38:34.461Z,4.20
2019-05-13T15:41:03.759Z,4.50
2019-05-13T15:43:34.475Z,4.33
2019-05-13T15:46:03.701Z,3.80
2019-05-13T15:48:36.543Z,3.97
2019-05-13T15:51:05.859Z,4.33
2019-05-13T15:53:35.095Z,3.83
2019-05-13T15:56:04.278Z,4.40
2019-05-13T15:58:39.207Z,3.50
2019-05-13T16:01:04.429Z,4.17
2019-05-13T16:03:35.502Z,4.53
2019-05-13T16:06:04.803Z,4.03
2019-05-13T16:08:34.812Z,4.37
2019-05-13T16:11:04.500Z,4.23
2019-05-13T16:13:33.803Z,4.37
2019-05-13T16:16:03.919Z,4.50
2019-05-13T16:18:33.807Z,4.97
2019-05-13T16:21:03.155Z,4.77
2019-05-13T16:23:32.760Z,5.00
2019-05-13T16:26:02.613Z,5.40
2019-05-13T16:28:32.883Z,5.00
2019-05-13T16:31:02.820Z,4.73
2019-05-13T16:33:32.162Z,4.70
2019-05-13T16:36:02.648Z,5.30
2019-05-13T16:38:33.064Z,4.70
2019-05-13T16:41:02.680Z,5.23
2019-05-13T16:43:32.227Z,4.67
2019-05-13T16:46:01.801Z,4.90
2019-05-13T16:48:32.362Z,5.17
2019-05-13T16:51:02.355Z,4.30
2019-05-13T16:53:31.785Z,4.43
2019-05-13T16:56:01.887Z,5.07
2019-05-13T16:58:32.392Z,4.60
2019-05-13T17:01:02.625Z,4.50
2019-05-13T17:03:32.148Z,4.83
2019-05-13T17:06:02.304Z,5.33
2019-05-13T17:08:32.113Z,5.60
2019-05-13T17:11:02.466Z,4.87
2019-05-13T17:13:32.672Z,5.27
2019-05-13T17:16:02.016Z,5.17
2019-05-13T17:18:32.572Z,4.63
2019-05-13T17:21:02.196Z,4.90
2019-05-13T17:23:31.794Z,5.27
2019-05-13T17:26:02.613Z,5.23
2019-05-13T17:28:34.236Z,5.57
2019-05-13T17:31:03.758Z,5.00
2019-05-13T17:33:33.065Z,5.10
2019-05-13T17:36:02.814Z,5.47
2019-05-13T17:38:32.570Z,5.27
2019-05-13T17:41:02.616Z,5.30
2019-05-13T17:43:32.277Z,4.73
2019-05-13T17:46:02.247Z,5.03
2019-05-13T17:48:33.075Z,5.30
2019-05-13T17:51:02.491Z,5.07
2019-05-13T17:53:32.698Z,4.67
2019-05-13T17:56:02.558Z,4.60
2019-05-13T17:58:32.299Z,5.17
2019-05-13T18:01:01.972Z,4.67
2019-05-13T18:03:32.334Z,5.47
2019-05-13T18:06:02.419Z,5.00
2019-05-13T18:08:32.552Z,5.67
2019-05-13T18:11:04.638Z,5.17
2019-05-13T18:13:33.817Z,4.93
2019-05-13T18:16:03.509Z,4.47
2019-05-13T18:18:42.644Z,4.87
2019-05-13T18:21:04.612Z,4.60
2019-05-13T18:23:34.104Z,5.10
2019-05-13T18:26:03.390Z,4.60
2019-05-13T18:28:34.146Z,4.60
2019-05-13T18:31:03.982Z,4.47
2019-05-13T18:33:33.954Z,4.40
2019-05-13T18:36:03.202Z,4.70
2019-05-13T18:38:33.226Z,4.40
2019-05-13T18:41:03.342Z,4.50
2019-05-13T18:43:32.736Z,5.33
2019-05-13T18:46:02.350Z,4.87
2019-05-13T18:48:32.530Z,5.50
2019-05-13T18:51:01.792Z,4.30
2019-05-13T18:53:32.059Z,4.27
2019-05-13T18:56:02.145Z,4.97
2019-05-13T18:58:31.969Z,4.60
2019-05-13T19:01:01.470Z,4.50
2019-05-13T19:03:32.405Z,4.87
2019-05-13T19:06:02.136Z,4.33
2019-05-13T19:08:32.121Z,4.70
2019-05-13T19:11:02.274Z,4.80
2019-05-13T19:13:32.339Z,4.87
2019-05-13T19:16:02.493Z,4.40
2019-05-13T19:18:32.287Z,4.47
2019-05-13T19:21:01.896Z,4.83
2019-05-13T19:23:31.686Z,4.43
2019-05-13T19:26:01.933Z,4.63
2019-05-13T19:28:32.014Z,5.17
2019-05-13T19:31:02.206Z,4.43
2019-05-13T19:33:31.744Z,4.80
2019-05-13T19:36:01.609Z,4.47
2019-05-13T19:38:31.999Z,4.33
2019-05-13T19:41:01.970Z,4.50
2019-05-13T19:43:31.606Z,4.60
2019-05-13T19:46:01.818Z,4.77
2019-05-13T19:48:32.691Z,4.60
2019-05-13T19:51:02.445Z,4.40
2019-05-13T19:53:32.054Z,4.00
2019-05-13T19:56:21.435Z,4.20
2019-05-13T19:58:50.877Z,3.80
2019-05-13T20:01:21.692Z,4.37
2019-05-13T20:03:51.577Z,3.80
2019-05-13T20:06:21.446Z,4.00
2019-05-13T20:08:51.829Z,4.50
2019-05-13T20:11:21.817Z,4.20
2019-05-13T20:13:52.115Z,4.20
2019-05-13T20:16:22.207Z,4.10
2019-05-13T20:18:51.837Z,3.90
2019-05-13T20:21:21.617Z,3.77
2019-05-13T20:23:51.888Z,3.97
2019-05-13T20:26:21.904Z,4.20
2019-05-13T20:28:51.358Z,3.80
2019-05-13T20:31:21.697Z,3.83
2019-05-13T20:33:51.673Z,4.27
2019-05-13T20:36:22.194Z,3.70
2019-05-13T20:38:51.944Z,4.40
2019-05-13T20:41:22.396Z,4.40
2019-05-13T20:43:52.224Z,4.50
2019-05-13T20:46:23.151Z,4.40
2019-05-13T20:48:52.727Z,4.67
2019-05-13T20:51:22.112Z,4.37
2019-05-13T20:53:51.942Z,4.50
2019-05-13T20:56:21.538Z,4.83
2019-05-13T20:58:51.810Z,4.43
2019-05-13T21:01:21.206Z,4.33
2019-05-13T21:03:51.563Z,4.40
2019-05-13T21:06:22.131Z,4.57
2019-05-13T21:08:52.278Z,4.40
2019-05-13T21:11:22.044Z,4.27
2019-05-13T21:13:51.807Z,5.03
2019-05-13T21:16:21.856Z,4.90
2019-05-13T21:18:51.616Z,4.70
2019-05-13T21:21:22.196Z,4.50
2019-05-13T21:23:52.283Z,4.60
2019-05-13T21:26:22.527Z,4.87
2019-05-13T21:28:52.259Z,4.50
2019-05-13T21:31:21.676Z,4.97
2019-05-13T21:33:51.437Z,4.57
2019-05-13T21:36:21.595Z,4.63
2019-05-13T21:38:51.200Z,5.03
2019-05-13T21:41:21.167Z,4.83
2019-05-13T21:43:52.072Z,4.70
2019-05-13T21:46:21.516Z,4.97
2019-05-13T21:48:52.069Z,4.80
2019-05-13T21:51:22.198Z,5.70
2019-05-13T21:53:52.093Z,5.03
2019-05-13T21:56:23.223Z,5.40
2019-05-13T21:58:52.567Z,5.50
2019-05-13T22:01:23.470Z,5.23
2019-05-13T22:03:53.106Z,6.40
2019-05-13T22:06:22.268Z,5.77
2019-05-13T22:08:51.961Z,5.93
2019-05-13T22:11:22.179Z,6.00
2019-05-13T22:13:51.609Z,5.60
2019-05-13T22:16:21.449Z,5.93
2019-05-13T22:18:52.423Z,6.00
2019-05-13T22:21:22.101Z,5.80
2019-05-13T22:23:51.918Z,5.80
2019-05-13T22:26:22.222Z,6.10
2019-05-13T22:28:52.054Z,6.57
2019-05-13T22:31:22.317Z,6.80
2019-05-13T22:33:51.937Z,6.57
2019-05-13T22:36:21.415Z,6.90
2019-05-13T22:38:51.696Z,6.53
2019-05-13T22:41:22.237Z,7.47
2019-05-13T22:43:58.203Z,6.67
2019-05-13T22:46:23.027Z,7.67
2019-05-13T22:48:52.589Z,7.30
2019-05-13T22:51:22.163Z,7.60
2019-05-13T22:53:51.775Z,7.07
2019-05-13T22:56:22.271Z,6.80
2019-05-13T22:58:51.745Z,6.60
2019-05-13T23:01:21.815Z,6.70
2019-05-13T23:03:52.067Z,5.20
2019-05-13T23:06:21.618Z,5.67
2019-05-13T23:08:50.980Z,5.93
2019-05-13T23:11:21.881Z,5.57
2019-05-13T23:13:51.389Z,5.53
2019-05-13T23:16:22.248Z,5.97
2019-05-13T23:18:51.690Z,5.57
2019-05-13T23:21:21.558Z,5.60
2019-05-13T23:23:51.474Z,6.10
2019-05-13T23:26:21.151Z,5.97
2019-05-13T23:28:52.169Z,6.33
2019-05-13T23:31:21.518Z,6.07
2019-05-13T23:33:50.896Z,6.10
2019-05-13T23:36:21.090Z,6.90
2019-05-13T23:38:51.666Z,5.70
2019-05-13T23:41:21.777Z,5.63
2019-05-13T23:43:51.235Z,5.60
2019-05-13T23:46:22.258Z,5.43
2019-05-13T23:48:52.223Z,6.03
2019-05-13T23:51:21.693Z,6.23
2019-05-13T23:53:51.144Z,5.83
2019-05-13T23:56:21.797Z,5.70
2019-05-13T23:58:51.910Z,5.33
